createdAt,value
2018-10-16T00:00:59.014Z,74.37
2018-10-16T00:03:30.761Z,74.16
2018-10-16T00:06:02.650Z,74.96
2018-10-16T00:08:33.805Z,73.59
2018-10-16T00:11:05.356Z,73.11
2018-10-16T00:13:36.664Z,74.18
2018-10-16T00:16:08.006Z,73.24
2018-10-16T00:18:39.577Z,74.22
2018-10-16T00:21:10.768Z,73.44
2018-10-16T00:23:42.523Z,72.30
2018-10-16T00:26:14.001Z,72.32
2018-10-16T00:28:45.211Z,72.96
2018-10-16T00:31:16.813Z,72.31
2018-10-16T00:33:48.133Z,72.38
2018-10-16T00:36:19.388Z,72.64
2018-10-16T00:38:50.552Z,73.25
2018-10-16T00:41:22.130Z,73.21
2018-10-16T00:43:53.426Z,73.88
2018-10-16T00:46:24.669Z,73.73
2018-10-16T00:48:56.242Z,73.70
2018-10-16T00:51:27.452Z,73.29
2018-10-16T00:53:58.659Z,73.63
2018-10-16T00:56:30.390Z,73.55
2018-10-16T00:59:01.587Z,74.79
2018-10-16T01:01:33.842Z,74.30
2018-10-16T01:04:06.197Z,74.50
2018-10-16T01:06:38.162Z,74.96
2018-10-16T01:09:13.315Z,75.26
2018-10-16T01:11:44.518Z,75.19
2018-10-16T01:14:15.710Z,75.23
2018-10-16T01:16:46.900Z,74.68
2018-10-16T01:19:18.095Z,74.95
2018-10-16T01:21:50.242Z,75.55
2018-10-16T01:24:21.672Z,75.05
2018-10-16T01:26:53.021Z,75.05
2018-10-16T01:29:24.630Z,74.38
2018-10-16T01:31:55.810Z,74.55
2018-10-16T01:34:26.983Z,74.90
2018-10-16T01:36:58.492Z,75.17
2018-10-16T01:39:30.062Z,75.68
2018-10-16T01:42:01.224Z,75.46
2018-10-16T01:44:32.436Z,75.79
2018-10-16T01:47:04.106Z,75.21
2018-10-16T01:49:35.526Z,75.53
2018-10-16T01:52:06.745Z,76.37
2018-10-16T01:54:37.948Z,76.59
2018-10-16T01:57:09.450Z,76.74
2018-10-16T01:59:41.059Z,76.61
2018-10-16T02:02:12.296Z,76.84
2018-10-16T02:04:44.015Z,76.90
2018-10-16T02:07:16.016Z,76.29
2018-10-16T02:09:47.180Z,75.55
2018-10-16T02:12:18.813Z,75.93
2018-10-16T02:14:50.500Z,76.53
2018-10-16T02:17:21.776Z,76.98
2018-10-16T02:19:52.933Z,76.76
2018-10-16T02:22:24.116Z,76.93
2018-10-16T02:24:55.732Z,76.66
2018-10-16T02:27:26.927Z,76.52
2018-10-16T02:29:58.302Z,76.75
2018-10-16T02:32:29.454Z,77.13
2018-10-16T02:35:01.508Z,77.06
2018-10-16T02:37:33.144Z,77.17
2018-10-16T02:40:04.557Z,76.15
2018-10-16T02:42:35.763Z,77.03
2018-10-16T02:45:08.214Z,76.69
2018-10-16T02:47:39.648Z,77.08
2018-10-16T02:50:12.408Z,78.25
2018-10-16T02:52:43.931Z,78.12
2018-10-16T02:55:15.090Z,78.06
2018-10-16T02:57:46.961Z,77.69
2018-10-16T03:00:18.280Z,77.30
2018-10-16T03:02:49.753Z,77.40
2018-10-16T03:05:21.342Z,77.25
2018-10-16T03:07:52.940Z,77.03
2018-10-16T03:10:24.365Z,77.19
2018-10-16T03:12:55.522Z,77.67
2018-10-16T03:15:27.108Z,78.29
2018-10-16T03:17:58.550Z,78.95
2018-10-16T03:20:30.165Z,79.26
2018-10-16T03:23:01.668Z,78.63
2018-10-16T03:25:32.858Z,77.92
2018-10-16T03:28:04.021Z,77.74
2018-10-16T03:30:36.017Z,77.83
2018-10-16T03:33:07.467Z,77.72
2018-10-16T03:35:38.642Z,77.83
2018-10-16T03:38:10.497Z,77.95
2018-10-16T03:40:42.055Z,78.07
2018-10-16T03:43:13.204Z,78.48
2018-10-16T03:45:44.414Z,78.51
2018-10-16T03:48:15.903Z,78.22
2018-10-16T03:50:47.731Z,77.97
2018-10-16T03:53:18.970Z,78.23
2018-10-16T03:55:50.125Z,77.77
2018-10-16T03:58:21.571Z,77.50
2018-10-16T04:00:53.013Z,77.56
2018-10-16T04:03:24.193Z,78.38
2018-10-16T04:05:55.878Z,78.71
2018-10-16T04:08:27.461Z,78.92
2018-10-16T04:10:58.671Z,79.23
2018-10-16T04:13:30.402Z,79.07
2018-10-16T04:16:01.575Z,79.29
2018-10-16T04:18:32.774Z,79.16
2018-10-16T04:21:03.937Z,79.40
2018-10-16T04:23:35.104Z,78.86
2018-10-16T04:26:06.599Z,79.13
2018-10-16T04:28:37.768Z,78.63
2018-10-16T04:31:10.031Z,78.62
2018-10-16T04:33:41.454Z,78.28
2018-10-16T04:36:12.878Z,78.62
2018-10-16T04:38:44.107Z,78.68
2018-10-16T04:41:15.559Z,78.68
2018-10-16T04:43:46.726Z,78.69
2018-10-16T04:46:17.889Z,78.46
2018-10-16T04:48:49.614Z,78.90
2018-10-16T04:51:21.093Z,80.58
2018-10-16T04:53:52.249Z,80.42
2018-10-16T04:56:23.696Z,79.64
2018-10-16T04:58:55.240Z,78.66
2018-10-16T05:01:27.305Z,79.11
2018-10-16T05:03:58.714Z,79.10
2018-10-16T05:06:30.515Z,79.95
2018-10-16T05:09:01.963Z,80.06
2018-10-16T05:11:33.195Z,80.21
2018-10-16T05:14:04.349Z,80.34
2018-10-16T05:16:35.826Z,80.38
2018-10-16T05:19:07.227Z,80.42
2018-10-16T05:21:38.857Z,80.64
2018-10-16T05:24:10.971Z,79.46
2018-10-16T05:26:42.489Z,79.51
2018-10-16T05:29:13.800Z,79.44
2018-10-16T05:31:44.963Z,79.39
2018-10-16T05:34:16.157Z,79.12
2018-10-16T05:36:47.364Z,79.54
2018-10-16T05:39:18.692Z,79.84
2018-10-16T05:41:50.075Z,80.22
2018-10-16T05:44:21.577Z,80.04
2018-10-16T05:46:52.751Z,79.96
2018-10-16T05:49:24.297Z,80.19
2018-10-16T05:51:55.485Z,79.98
2018-10-16T05:54:27.119Z,79.42
2018-10-16T05:56:58.239Z,80.45
2018-10-16T05:59:29.400Z,80.57
2018-10-16T06:02:01.186Z,80.84
2018-10-16T06:04:32.334Z,80.66
2018-10-16T06:07:03.775Z,80.67
2018-10-16T06:09:35.738Z,81.29
2018-10-16T06:12:07.199Z,81.73
2018-10-16T06:14:38.782Z,80.17
2018-10-16T06:17:09.946Z,79.97
2018-10-16T06:19:41.655Z,79.75
2018-10-16T06:22:13.189Z,79.90
2018-10-16T06:24:44.366Z,80.30
2018-10-16T06:27:15.557Z,80.75
2018-10-16T06:29:46.732Z,80.26
2018-10-16T06:32:17.856Z,80.14
2018-10-16T06:34:49.405Z,79.80
2018-10-16T06:37:20.865Z,78.89
2018-10-16T06:39:52.320Z,77.93
2018-10-16T06:42:36.790Z,76.60
2018-10-16T06:45:10.336Z,75.97
2018-10-16T06:47:41.548Z,75.06
2018-10-16T06:50:13.115Z,74.52
2018-10-16T06:52:44.265Z,74.33
2018-10-16T06:55:15.791Z,73.42
2018-10-16T06:57:47.270Z,72.88
2018-10-16T07:00:19.192Z,71.81
2018-10-16T07:02:50.321Z,70.42
2018-10-16T07:05:21.910Z,68.95
2018-10-16T07:07:53.460Z,67.93
2018-10-16T07:10:24.647Z,65.99
2018-10-16T07:12:56.101Z,66.16
2018-10-16T07:15:27.658Z,64.38
2018-10-16T07:17:59.101Z,62.64
2018-10-16T07:20:30.612Z,63.10
2018-10-16T07:23:01.828Z,60.51
2018-10-16T07:25:33.345Z,61.07
2018-10-16T07:28:04.496Z,60.82
2018-10-16T07:30:36.542Z,59.79
2018-10-16T07:33:07.716Z,59.81
2018-10-16T07:35:39.312Z,57.40
2018-10-16T07:38:10.645Z,57.71
2018-10-16T07:40:42.021Z,57.88
2018-10-16T07:43:13.457Z,57.47
2018-10-16T07:45:44.857Z,58.60
2018-10-16T07:48:16.051Z,55.98
2018-10-16T07:50:47.596Z,57.87
2018-10-16T07:53:19.154Z,55.94
2018-10-16T07:55:51.143Z,55.25
2018-10-16T07:58:22.584Z,55.75
2018-10-16T08:00:54.218Z,53.66
2018-10-16T08:03:25.413Z,53.93
2018-10-16T08:05:56.912Z,52.48
2018-10-16T08:08:28.387Z,51.41
2018-10-16T08:11:00.229Z,52.53
2018-10-16T08:13:31.697Z,52.98
2018-10-16T08:16:02.895Z,52.37
2018-10-16T08:18:34.124Z,50.63
2018-10-16T08:21:05.303Z,50.03
2018-10-16T08:23:36.464Z,48.41
2018-10-16T08:26:09.795Z,48.49
2018-10-16T08:28:40.938Z,48.79
2018-10-16T08:31:12.356Z,50.57
2018-10-16T08:33:43.591Z,47.93
2018-10-16T08:36:14.911Z,48.41
2018-10-16T08:39:21.101Z,48.44
2018-10-16T08:42:22.493Z,48.36
2018-10-16T08:45:49.003Z,47.14
2018-10-16T08:49:13.905Z,47.32
2018-10-16T08:51:49.774Z,46.67
2018-10-16T08:54:21.443Z,47.30
2018-10-16T08:56:52.863Z,44.50
2018-10-16T08:59:24.500Z,45.82
2018-10-16T09:01:55.691Z,43.64
2018-10-16T09:04:27.348Z,43.58
2018-10-16T09:06:58.564Z,44.09
2018-10-16T09:09:30.012Z,45.08
2018-10-16T09:12:01.317Z,44.61
2018-10-16T09:14:32.822Z,44.00
2018-10-16T09:17:04.162Z,43.96
2018-10-16T09:19:35.703Z,44.04
2018-10-16T09:22:07.073Z,43.48
2018-10-16T09:24:38.505Z,43.20
2018-10-16T09:27:09.897Z,43.90
2018-10-16T09:29:41.495Z,41.89
2018-10-16T09:32:12.712Z,40.76
2018-10-16T09:34:44.125Z,42.14
2018-10-16T09:37:15.960Z,41.92
2018-10-16T09:39:47.414Z,40.75
2018-10-16T09:42:18.971Z,40.72
2018-10-16T09:44:50.608Z,40.13
2018-10-16T09:47:22.173Z,41.02
2018-10-16T09:49:53.715Z,41.66
2018-10-16T09:52:25.373Z,40.39
2018-10-16T09:54:56.569Z,41.95
2018-10-16T09:57:27.791Z,40.83
2018-10-16T09:59:58.946Z,41.77
2018-10-16T10:02:30.769Z,40.68
2018-10-16T10:05:02.468Z,39.59
2018-10-16T10:07:34.003Z,39.50
2018-10-16T10:10:05.136Z,37.53
2018-10-16T10:12:36.425Z,38.24
2018-10-16T10:15:07.879Z,38.37
2018-10-16T10:17:39.047Z,37.52
2018-10-16T10:20:11.231Z,39.24
2018-10-16T10:22:42.897Z,38.12
2018-10-16T10:25:14.750Z,38.42
2018-10-16T10:27:46.135Z,37.30
2018-10-16T10:30:17.345Z,37.18
2018-10-16T10:32:48.586Z,38.55
2018-10-16T10:35:20.068Z,37.73
2018-10-16T10:37:51.199Z,36.41
2018-10-16T10:40:22.719Z,36.17
2018-10-16T10:42:54.180Z,35.68
2018-10-16T10:45:25.879Z,35.21
2018-10-16T10:47:57.401Z,36.32
2018-10-16T10:50:28.937Z,36.28
2018-10-16T10:53:00.299Z,34.99
2018-10-16T10:55:31.496Z,35.04
2018-10-16T10:58:02.852Z,35.36
2018-10-16T11:00:34.064Z,35.74
2018-10-16T11:03:05.610Z,33.56
2018-10-16T11:05:37.060Z,34.60
2018-10-16T11:08:08.570Z,34.04
2018-10-16T11:10:40.059Z,33.44
2018-10-16T11:13:11.677Z,34.83
2018-10-16T11:15:43.037Z,33.72
2018-10-16T11:18:14.948Z,35.89
2018-10-16T11:20:46.347Z,36.89
2018-10-16T11:23:18.280Z,36.17
2018-10-16T11:25:49.757Z,33.64
2018-10-16T11:28:21.026Z,33.97
2018-10-16T11:30:52.648Z,34.30
2018-10-16T11:33:23.884Z,34.10
2018-10-16T11:35:55.434Z,33.48
2018-10-16T11:38:27.156Z,33.86
2018-10-16T11:40:58.370Z,33.63
2018-10-16T11:43:29.808Z,34.98
2018-10-16T11:46:00.981Z,34.16
2018-10-16T11:48:32.578Z,33.65
2018-10-16T11:51:03.859Z,33.08
2018-10-16T11:53:35.190Z,32.70
2018-10-16T11:56:06.479Z,32.80
2018-10-16T11:58:37.959Z,33.16
2018-10-16T12:01:09.533Z,33.42
2018-10-16T12:03:40.768Z,32.50
2018-10-16T12:06:12.054Z,32.38
2018-10-16T12:08:43.679Z,33.29
2018-10-16T12:11:15.152Z,33.05
2018-10-16T12:13:47.255Z,34.14
2018-10-16T12:16:19.297Z,33.24
2018-10-16T12:19:09.199Z,32.42
2018-10-16T12:21:40.350Z,32.10
2018-10-16T12:24:11.869Z,32.41
2018-10-16T12:26:43.396Z,31.73
2018-10-16T12:29:14.946Z,32.84
2018-10-16T12:31:46.862Z,33.09
2018-10-16T12:34:18.041Z,31.38
2018-10-16T12:36:49.426Z,31.74
2018-10-16T12:39:21.114Z,31.88
2018-10-16T12:41:52.328Z,33.47
2018-10-16T12:44:23.507Z,31.40
2018-10-16T12:46:54.724Z,29.82
2018-10-16T12:49:25.889Z,30.13
2018-10-16T12:51:57.872Z,29.20
2018-10-16T12:54:29.691Z,29.73
2018-10-16T12:57:01.681Z,29.43
2018-10-16T12:59:32.781Z,29.14
2018-10-16T13:02:03.919Z,28.89
2018-10-16T13:04:35.078Z,28.58
2018-10-16T13:07:43.551Z,29.85
2018-10-16T13:10:19.402Z,31.21
2018-10-16T13:12:50.826Z,30.60
2018-10-16T13:15:22.021Z,30.67
2018-10-16T13:17:53.594Z,29.94
2018-10-16T13:20:25.033Z,29.97
2018-10-16T13:22:56.615Z,29.41
2018-10-16T13:25:27.944Z,30.66
2018-10-16T13:27:59.363Z,30.82
2018-10-16T13:30:30.827Z,30.27
2018-10-16T13:33:02.223Z,30.81
2018-10-16T13:35:33.424Z,31.30
2018-10-16T13:38:04.611Z,32.28
2018-10-16T13:40:36.007Z,31.63
2018-10-16T13:43:08.313Z,30.90
2018-10-16T13:45:39.779Z,30.88
2018-10-16T13:48:11.203Z,30.58
2018-10-16T13:50:42.711Z,30.52
2018-10-16T13:53:13.913Z,32.58
2018-10-16T13:55:45.065Z,33.57
2018-10-16T13:58:16.458Z,34.85
2018-10-16T14:00:47.733Z,36.06
2018-10-16T14:03:19.188Z,37.14
2018-10-16T14:05:50.579Z,35.58
2018-10-16T14:08:21.771Z,35.99
2018-10-16T14:10:52.945Z,35.60
2018-10-16T14:13:24.586Z,34.98
2018-10-16T14:15:55.808Z,34.24
2018-10-16T14:18:27.278Z,31.98
2018-10-16T14:20:58.700Z,31.10
2018-10-16T14:23:30.730Z,30.51
2018-10-16T14:26:02.390Z,29.92
2018-10-16T14:28:33.527Z,29.75
2018-10-16T14:31:04.679Z,29.81
2018-10-16T14:33:36.302Z,30.52
2018-10-16T14:36:07.515Z,30.98
2018-10-16T14:38:38.907Z,31.45
2018-10-16T14:41:10.305Z,33.39
2018-10-16T14:43:42.237Z,34.64
2018-10-16T14:46:14.213Z,36.07
2018-10-16T14:48:45.741Z,37.78
2018-10-16T14:51:16.903Z,37.18
2018-10-16T14:53:48.134Z,36.20
2018-10-16T14:56:19.378Z,38.92
2018-10-16T14:58:50.748Z,39.58
2018-10-16T15:01:22.134Z,36.72
2018-10-16T15:03:53.740Z,36.87
2018-10-16T15:06:24.860Z,37.00
2018-10-16T15:08:56.372Z,36.67
2018-10-16T15:11:27.772Z,39.11
2018-10-16T15:13:59.230Z,42.08
2018-10-16T15:16:30.399Z,42.35
2018-10-16T15:19:01.854Z,41.91
2018-10-16T15:21:33.945Z,41.94
2018-10-16T15:24:05.698Z,44.70
2018-10-16T15:26:37.201Z,43.29
2018-10-16T15:29:08.645Z,45.59
2018-10-16T15:31:40.071Z,47.38
2018-10-16T15:34:11.282Z,49.53
2018-10-16T15:36:42.843Z,49.45
2018-10-16T15:39:14.742Z,50.39
2018-10-16T15:41:46.157Z,50.59
2018-10-16T15:44:17.704Z,50.78
2018-10-16T15:46:48.981Z,50.88
2018-10-16T15:49:20.073Z,51.64
2018-10-16T15:51:51.270Z,50.63
2018-10-16T15:54:22.906Z,50.16
2018-10-16T15:56:54.386Z,51.08
2018-10-16T15:59:25.569Z,52.05
2018-10-16T16:01:57.091Z,53.27
2018-10-16T16:04:28.626Z,54.10
2018-10-16T16:07:00.041Z,55.46
2018-10-16T16:09:31.227Z,55.27
2018-10-16T16:12:02.483Z,56.09
2018-10-16T16:14:33.642Z,57.20
2018-10-16T16:17:05.532Z,57.80
2018-10-16T16:19:36.993Z,57.84
2018-10-16T16:22:08.520Z,58.39
2018-10-16T16:24:40.394Z,58.00
2018-10-16T16:27:11.795Z,57.88
2018-10-16T16:29:43.262Z,58.79
2018-10-16T16:32:14.904Z,58.90
2018-10-16T16:34:46.056Z,58.13
2018-10-16T16:37:17.736Z,57.89
2018-10-16T16:39:49.501Z,58.25
2018-10-16T16:42:20.733Z,58.54
2018-10-16T16:44:52.202Z,59.38
2018-10-16T16:47:23.651Z,59.31
2018-10-16T16:49:55.584Z,59.61
2018-10-16T16:52:27.080Z,59.85
2018-10-16T16:54:58.316Z,60.08
2018-10-16T16:57:29.980Z,60.22
2018-10-16T17:00:01.120Z,60.84
2018-10-16T17:02:32.978Z,61.15
2018-10-16T17:05:04.573Z,61.81
2018-10-16T17:07:36.340Z,61.78
2018-10-16T17:10:08.446Z,62.37
2018-10-16T17:12:40.846Z,62.49
2018-10-16T17:15:17.294Z,62.37
2018-10-16T17:17:48.899Z,62.81
2018-10-16T17:20:20.799Z,63.07
2018-10-16T17:22:51.968Z,63.71
2018-10-16T17:25:23.572Z,62.98
2018-10-16T17:27:54.641Z,62.50
2018-10-16T17:30:26.192Z,62.92
2018-10-16T17:32:58.089Z,63.09
2018-10-16T17:35:29.222Z,63.29
2018-10-16T17:38:00.701Z,63.56
2018-10-16T17:40:32.466Z,64.04
2018-10-16T17:43:04.109Z,65.02
2018-10-16T17:45:35.263Z,65.42
2018-10-16T17:48:06.917Z,65.80
2018-10-16T17:50:38.362Z,65.92
2018-10-16T17:53:09.863Z,66.18
2018-10-16T17:55:41.112Z,66.34
2018-10-16T17:58:13.052Z,66.29
2018-10-16T18:00:44.593Z,66.26
2018-10-16T18:03:15.896Z,66.18
2018-10-16T18:05:46.950Z,66.16
2018-10-16T18:08:18.457Z,65.71
2018-10-16T18:10:49.931Z,65.60
2018-10-16T18:13:21.127Z,65.91
2018-10-16T18:15:52.701Z,65.75
2018-10-16T18:18:24.325Z,65.62
2018-10-16T18:20:55.779Z,65.37
2018-10-16T18:23:26.939Z,65.63
2018-10-16T18:25:58.578Z,64.90
2018-10-16T18:28:29.986Z,64.25
2018-10-16T18:31:01.611Z,64.50
2018-10-16T18:33:33.393Z,64.37
2018-10-16T18:36:04.823Z,63.97
2018-10-16T18:38:36.260Z,63.99
2018-10-16T18:41:08.145Z,63.97
2018-10-16T18:43:58.703Z,63.11
2018-10-16T18:46:30.506Z,62.60
2018-10-16T18:49:01.653Z,63.20
2018-10-16T18:51:32.996Z,63.92
2018-10-16T18:54:04.215Z,63.79
2018-10-16T18:56:35.387Z,64.30
2018-10-16T18:59:06.630Z,64.60
2018-10-16T19:01:38.250Z,64.68
2018-10-16T19:04:09.715Z,65.50
2018-10-16T19:06:41.027Z,65.48
2018-10-16T19:09:13.511Z,65.61
2018-10-16T19:11:45.014Z,66.03
2018-10-16T19:14:16.206Z,66.50
2018-10-16T19:16:47.409Z,67.21
2018-10-16T19:19:18.655Z,68.28
2018-10-16T19:21:49.904Z,68.27
2018-10-16T19:24:21.347Z,68.05
2018-10-16T19:26:52.892Z,68.37
2018-10-16T19:29:24.300Z,68.64
2018-10-16T19:31:56.062Z,69.25
2018-10-16T19:34:27.903Z,69.33
2018-10-16T19:36:59.103Z,69.36
2018-10-16T19:39:30.269Z,69.68
2018-10-16T19:42:01.435Z,70.09
2018-10-16T19:44:32.706Z,68.98
2018-10-16T19:47:03.921Z,69.14
2018-10-16T19:49:35.366Z,70.10
2018-10-16T19:52:06.636Z,70.55
2018-10-16T19:54:38.179Z,69.80
2018-10-16T19:57:09.827Z,69.75
2018-10-16T19:59:41.546Z,69.53
2018-10-16T20:02:12.683Z,70.05
2018-10-16T20:04:44.146Z,71.24
2018-10-16T20:07:15.386Z,71.28
2018-10-16T20:09:47.397Z,71.36
2018-10-16T20:12:19.098Z,71.67
2018-10-16T20:14:50.912Z,72.09
2018-10-16T20:17:22.767Z,69.97
2018-10-16T20:19:54.385Z,70.60
2018-10-16T20:22:25.669Z,70.67
2018-10-16T20:24:57.732Z,71.78
2018-10-16T20:27:29.388Z,70.95
2018-10-16T20:30:00.832Z,70.99
2018-10-16T20:32:32.039Z,71.44
2018-10-16T20:35:03.952Z,71.06
2018-10-16T20:37:35.443Z,71.60
2018-10-16T20:40:06.796Z,71.88
2018-10-16T20:42:38.751Z,72.76
2018-10-16T20:45:10.013Z,73.60
2018-10-16T20:47:41.560Z,73.71
2018-10-16T20:50:12.784Z,72.71
2018-10-16T20:52:44.307Z,73.08
2018-10-16T20:55:15.527Z,72.45
2018-10-16T20:57:46.664Z,71.79
2018-10-16T21:00:18.094Z,71.13
2018-10-16T21:02:49.698Z,71.34
2018-10-16T21:05:21.562Z,72.98
2018-10-16T21:07:52.977Z,72.43
2018-10-16T21:10:24.174Z,72.84
2018-10-16T21:12:55.396Z,71.50
2018-10-16T21:15:27.005Z,71.43
2018-10-16T21:17:58.170Z,71.85
2018-10-16T21:20:29.620Z,72.25
2018-10-16T21:23:01.247Z,72.01
2018-10-16T21:25:32.357Z,72.38
2018-10-16T21:28:03.577Z,72.82
2018-10-16T21:30:35.133Z,72.61
2018-10-16T21:33:06.603Z,72.99
2018-10-16T21:35:38.030Z,72.42
2018-10-16T21:38:09.197Z,72.16
2018-10-16T21:40:40.842Z,71.55
2018-10-16T21:43:12.309Z,71.48
2018-10-16T21:45:44.042Z,71.93
2018-10-16T21:48:15.558Z,72.24
2018-10-16T21:50:46.985Z,72.52
2018-10-16T21:53:18.498Z,73.05
2018-10-16T21:55:49.937Z,73.39
2018-10-16T21:58:21.416Z,74.06
2018-10-16T22:01:12.273Z,73.54
2018-10-16T22:03:43.438Z,74.21
2018-10-16T22:06:14.920Z,75.03
2018-10-16T22:08:46.131Z,75.41
2018-10-16T22:11:17.591Z,75.55
2018-10-16T22:13:49.136Z,74.60
2018-10-16T22:16:20.343Z,75.60
2018-10-16T22:18:51.522Z,75.76
2018-10-16T22:21:22.691Z,75.92
2018-10-16T22:23:54.120Z,76.34
2018-10-16T22:26:25.285Z,76.50
2018-10-16T22:28:56.503Z,76.35
2018-10-16T22:31:28.243Z,76.31
2018-10-16T22:33:59.825Z,76.39
2018-10-16T22:36:31.354Z,76.96
2018-10-16T22:39:02.920Z,75.07
2018-10-16T22:41:34.405Z,74.74
2018-10-16T22:44:05.867Z,75.22
2018-10-16T22:46:37.416Z,75.94
2018-10-16T22:49:09.840Z,76.03
2018-10-16T22:51:41.319Z,75.88
2018-10-16T22:54:12.534Z,76.20
2018-10-16T22:56:44.014Z,77.47
2018-10-16T22:59:15.265Z,77.67
2018-10-16T23:01:47.077Z,77.38
2018-10-16T23:04:18.797Z,76.31
2018-10-16T23:06:50.599Z,75.92
2018-10-16T23:09:22.197Z,75.45
2018-10-16T23:11:53.333Z,75.25
2018-10-16T23:14:24.870Z,75.30
2018-10-16T23:16:56.083Z,75.62
2018-10-16T23:19:27.647Z,76.10
2018-10-16T23:21:59.377Z,77.22
2018-10-16T23:24:31.277Z,77.75
2018-10-16T23:27:02.759Z,76.85
2018-10-16T23:29:34.210Z,76.77
2018-10-16T23:32:05.742Z,76.55
2018-10-16T23:34:37.354Z,77.32
2018-10-16T23:37:08.863Z,77.12
2018-10-16T23:39:40.037Z,77.24
2018-10-16T23:42:11.248Z,77.55
2018-10-16T23:44:42.890Z,77.72
2018-10-16T23:47:14.521Z,77.82
2018-10-16T23:49:45.949Z,77.83
2018-10-16T23:52:17.114Z,78.05
2018-10-16T23:54:48.530Z,77.83
2018-10-16T23:57:19.684Z,78.39
2018-10-16T23:59:50.943Z,78.63
